الصفحة الرئيسية
METAR-TAF:

METAR-TAF

مطار :

Spaa

Tomaszów Mazowiecki, بولندا

دائرة عرض: 51-35-04N, خط طول: 020-05-52E, ارتفاع: 174 متر

METAR: مفقودة

زمن: 21:29 (19:29 UTC)

توقعات

تاريخ ووقت الإصدار 2ساعات و 29 دقيقة قبل الساعة 17:00UTC
التوقعات صالحة من02 الساعة 18 UTC إلى 03 الساعة 03 UTC
ريح 3 عقدةمن اتجاهات متغيرة
الرؤية 10 كم أو أكثر
الغيوم لا تقل 1500 م ولا وجود لمزنة ركامية السحاب الأسود
نظرية الاحتمالات 30% :
مؤقت
من 02 الساعة 18 UTC إلى 02 الساعة 23 UTC
الرؤية: 6000 متر
غيوم مفككة على ارتفاع 3000 قدم, مزنة ركامية.
زخات من الأمطار الخفيفة

TAF: EPTM 021700Z 0218/0303 VRB03KT CAVOK PROB30 TEMPO 0218/0223 6000 -SHRA BKN030CB

أرصاد الطقس والتوقعات من أكثر من 4000 مطار (تقارير الطقس للمطار METAR والتنبؤ بالطقس بالمطارTAF).

المحطات المتاحة هي النقط الصفراء والحمراء على الخريطة.

حرك المؤشر فوق النقطة لمعرفة اسم المحطة.

ثم انقر لمعرفة أرصاد وتوقعات الطقس.

لتغيير الخارطة: اضغط على الأزرار الخضراء مع رمز الصليب الأسود للتكبير. على الزر الأخضر مع شرطة للتصغير، أو على الأسهم الخضراء للخرائط المجاورة.


METAR-TAF: